createdAt,value
2023-04-22T00:02:33.858Z,11.93
2023-04-22T00:07:37.102Z,15.30
2023-04-22T00:12:38.904Z,13.03
2023-04-22T00:17:40.984Z,15.37
2023-04-22T00:22:44.091Z,13.40
2023-04-22T00:27:45.816Z,12.73
2023-04-22T00:32:49.033Z,14.80
2023-04-22T00:37:52.233Z,12.83
2023-04-22T00:42:53.970Z,14.33
2023-04-22T00:47:55.865Z,15.10
2023-04-22T00:52:59.068Z,13.17
2023-04-22T00:58:00.928Z,12.57
2023-04-22T01:03:03.106Z,20.20
2023-04-22T01:08:06.393Z,15.97
2023-04-22T01:13:08.178Z,18.53
2023-04-22T01:18:10.051Z,16.80
2023-04-22T01:23:17.246Z,13.07
2023-04-22T01:28:19.170Z,16.20
2023-04-22T01:33:20.971Z,19.77
2023-04-22T01:38:24.080Z,16.17
2023-04-22T01:43:25.834Z,13.97
2023-04-22T01:48:28.007Z,14.13
2023-04-22T01:53:31.099Z,22.60
2023-04-22T01:58:33.401Z,14.40
2023-04-22T02:03:35.209Z,15.83
2023-04-22T02:08:38.837Z,15.20
2023-04-22T02:13:41.147Z,13.77
2023-04-22T02:18:43.004Z,16.33
2023-04-22T02:23:46.120Z,16.97
2023-04-22T02:28:48.392Z,16.70
2023-04-22T02:33:50.142Z,15.70
2023-04-22T02:38:53.624Z,15.83
2023-04-22T02:43:55.306Z,15.80
2023-04-22T02:48:57.284Z,17.13
2023-04-22T02:54:00.453Z,19.57
2023-04-22T02:59:02.313Z,16.63
2023-04-22T03:04:04.236Z,20.90
2023-04-22T03:09:07.442Z,22.47
2023-04-22T03:14:09.264Z,16.67
2023-04-22T03:19:11.047Z,20.17
2023-04-22T03:24:14.182Z,19.50
2023-04-22T03:29:21.611Z,17.83
2023-04-22T03:34:23.927Z,16.93
2023-04-22T03:39:27.287Z,19.23
2023-04-22T03:44:29.137Z,17.83
2023-04-22T03:49:31.061Z,19.30
2023-04-22T03:54:34.218Z,17.33
2023-04-22T03:59:36.261Z,16.97
2023-04-22T04:04:38.414Z,16.80
2023-04-22T04:09:43.678Z,18.50
2023-04-22T04:14:46.371Z,23.93
2023-04-22T04:19:52.192Z,19.33
2023-04-22T04:24:56.170Z,20.67
2023-04-22T04:30:03.912Z,16.97
2023-04-22T04:35:35.809Z,16.67
2023-04-22T04:40:39.578Z,20.00
2023-04-22T04:45:49.654Z,22.20
2023-04-22T04:50:56.632Z,21.20
2023-04-22T04:56:02.460Z,17.90
2023-04-22T05:01:05.236Z,17.70
2023-04-22T05:06:07.667Z,22.67
2023-04-22T05:11:13.359Z,17.07
2023-04-22T05:16:16.787Z,25.37
2023-04-22T05:21:18.822Z,16.93
2023-04-22T05:26:22.059Z,22.17
2023-04-22T05:31:25.368Z,21.90
2023-04-22T05:36:29.814Z,17.33
2023-04-22T05:41:34.656Z,15.70
2023-04-22T05:46:37.596Z,23.33
2023-04-22T05:51:39.770Z,18.80
2023-04-22T05:56:42.984Z,17.93
2023-04-22T06:01:45.328Z,17.03
2023-04-22T06:06:53.967Z,18.70
2023-04-22T06:11:58.141Z,17.97
2023-04-22T06:17:00.270Z,18.23
2023-04-22T06:22:02.103Z,20.70
2023-04-22T06:27:05.326Z,15.10
2023-04-22T06:32:07.083Z,18.83
2023-04-22T06:37:09.041Z,19.37
2023-04-22T06:42:12.440Z,19.03
2023-04-22T06:47:24.167Z,18.23
2023-04-22T06:52:42.648Z,17.30
2023-04-22T06:57:45.900Z,11.67
2023-04-22T07:02:47.727Z,10.70
2023-04-22T07:07:49.622Z,10.70
2023-04-22T07:12:56.930Z,15.67
2023-04-22T07:17:58.675Z,14.93
2023-04-22T07:23:00.441Z,12.70
2023-04-22T07:28:03.497Z,9.90
2023-04-22T07:33:05.251Z,12.17
2023-04-22T07:38:09.869Z,12.23
2023-04-22T07:43:14.282Z,11.30
2023-04-22T07:48:17.006Z,19.50
2023-04-22T07:53:19.244Z,7.65
2023-04-22T07:58:22.563Z,10.32
2023-04-22T08:03:24.825Z,8.90
2023-04-22T08:08:26.674Z,7.32
2023-04-22T08:13:29.692Z,7.70
2023-04-22T08:18:31.376Z,9.02
2023-04-22T08:23:33.153Z,8.98
2023-04-22T08:28:36.216Z,5.35
2023-04-22T08:33:38.000Z,8.05
2023-04-22T08:38:39.920Z,8.52
2023-04-22T08:43:43.397Z,4.78
2023-04-22T08:48:45.210Z,9.07
2023-04-22T08:53:49.547Z,4.93
2023-04-22T08:58:52.669Z,5.43
2023-04-22T09:03:54.458Z,10.10
2023-04-22T09:08:56.192Z,8.25
2023-04-22T09:13:59.361Z,4.47
2023-04-22T09:19:01.569Z,12.45
2023-04-22T09:24:04.138Z,5.20
2023-04-22T09:29:09.451Z,8.05
2023-04-22T09:34:13.747Z,5.70
2023-04-22T09:39:15.659Z,9.35
2023-04-22T09:44:19.853Z,7.05
2023-04-22T09:49:25.197Z,9.23
2023-04-22T09:54:26.910Z,8.93
2023-04-22T09:59:30.446Z,4.53
2023-04-22T10:04:34.371Z,5.55
2023-04-22T10:09:36.259Z,4.13
2023-04-22T10:14:39.526Z,6.35
2023-04-22T10:19:41.599Z,7.30
2023-04-22T10:24:44.663Z,6.68
2023-04-22T10:29:47.677Z,8.50
2023-04-22T10:34:49.678Z,8.48
2023-04-22T10:40:06.532Z,7.60
2023-04-22T10:45:13.091Z,5.35
2023-04-22T10:50:21.156Z,5.03
2023-04-22T10:55:22.996Z,3.03
2023-04-22T11:00:38.606Z,4.55
2023-04-22T11:05:47.972Z,15.57
2023-04-22T11:10:50.408Z,5.55
2023-04-22T11:15:54.573Z,5.80
2023-04-22T11:20:56.322Z,8.13
2023-04-22T11:25:59.139Z,10.40
2023-04-22T11:31:06.569Z,15.80
2023-04-22T11:36:10.071Z,11.50
2023-04-22T11:41:11.808Z,9.03
2023-04-22T11:46:14.984Z,4.57
2023-04-22T11:51:16.796Z,7.20
2023-04-22T11:56:18.528Z,6.80
2023-04-22T12:01:21.664Z,7.77
2023-04-22T12:06:23.420Z,7.50
2023-04-22T12:11:25.196Z,7.93
2023-04-22T12:16:28.256Z,9.20
2023-04-22T12:21:30.018Z,9.33
2023-04-22T12:26:32.090Z,9.63
2023-04-22T12:31:35.806Z,8.50
2023-04-22T12:36:37.668Z,4.50
2023-04-22T12:41:39.400Z,7.73
2023-04-22T12:46:42.522Z,11.00
2023-04-22T12:51:44.240Z,6.33
2023-04-22T12:56:46.035Z,5.40
2023-04-22T13:01:49.090Z,8.23
2023-04-22T13:06:56.071Z,8.53
2023-04-22T13:11:58.342Z,5.43
2023-04-22T13:17:01.420Z,3.50
2023-04-22T13:22:03.474Z,4.93
2023-04-22T13:27:07.123Z,4.37
2023-04-22T13:32:10.201Z,6.07
2023-04-22T13:37:12.097Z,5.83
2023-04-22T13:42:13.781Z,5.87
2023-04-22T13:47:16.799Z,7.10
2023-04-22T13:52:18.517Z,13.77
2023-04-22T13:57:20.451Z,4.50
2023-04-22T14:02:23.753Z,13.10
2023-04-22T14:07:25.554Z,6.40
2023-04-22T14:12:27.338Z,10.17
2023-04-22T14:17:30.442Z,7.50
2023-04-22T14:22:32.173Z,11.90
2023-04-22T14:27:35.279Z,13.50
2023-04-22T14:32:38.357Z,6.50
2023-04-22T14:37:41.625Z,7.93
2023-04-22T14:42:43.380Z,9.97
2023-04-22T14:47:46.514Z,4.20
2023-04-22T14:52:48.326Z,10.97
2023-04-22T14:57:50.456Z,8.90
2023-04-22T15:02:54.061Z,6.20
2023-04-22T15:07:57.690Z,9.73
2023-04-22T15:13:00.518Z,12.13
2023-04-22T15:18:05.391Z,8.10
2023-04-22T15:23:07.151Z,7.50
2023-04-22T15:28:08.953Z,12.53
2023-04-22T15:33:12.070Z,11.90
2023-04-22T15:38:14.014Z,10.10
2023-04-22T15:43:15.776Z,9.73
2023-04-22T15:48:18.919Z,11.17
2023-04-22T15:53:20.640Z,8.87
2023-04-22T15:58:22.364Z,8.80
2023-04-22T16:03:25.825Z,8.10
2023-04-22T16:08:27.673Z,7.23
2023-04-22T16:13:29.534Z,14.90
2023-04-22T16:18:32.677Z,10.07
2023-04-22T16:23:34.700Z,7.80
2023-04-22T16:28:36.438Z,10.13
2023-04-22T16:33:39.444Z,10.63
2023-04-22T16:38:41.179Z,7.03
2023-04-22T16:43:43.052Z,10.40
2023-04-22T16:48:46.076Z,4.30
2023-04-22T16:53:47.776Z,12.90
2023-04-22T16:58:49.593Z,7.90
2023-04-22T17:03:52.809Z,7.13
2023-04-22T17:08:54.631Z,11.60
2023-04-22T17:13:56.310Z,12.97
2023-04-22T17:18:59.401Z,8.43
2023-04-22T17:24:02.226Z,15.70
2023-04-22T17:29:03.912Z,9.83
2023-04-22T17:34:06.966Z,6.93
2023-04-22T17:39:08.841Z,7.20
2023-04-22T17:44:11.386Z,7.70
2023-04-22T17:49:14.430Z,7.93
2023-04-22T17:54:16.184Z,6.83
2023-04-22T17:59:18.693Z,10.63
2023-04-22T18:04:21.847Z,6.37
2023-04-22T18:09:23.720Z,11.20
2023-04-22T18:14:26.571Z,11.87
2023-04-22T18:19:29.713Z,6.50
2023-04-22T18:24:31.499Z,9.50
2023-04-22T18:29:33.374Z,8.33
2023-04-22T18:34:36.427Z,7.70
2023-04-22T18:39:39.557Z,9.90
2023-04-22T18:44:41.795Z,5.07
2023-04-22T18:49:45.528Z,9.80
2023-04-22T18:54:47.341Z,8.00
2023-04-22T18:59:49.200Z,7.97
2023-04-22T19:04:54.126Z,7.10
2023-04-22T19:09:55.927Z,12.40
2023-04-22T19:15:00.147Z,9.00
2023-04-22T19:20:05.330Z,13.90
2023-04-22T19:25:07.996Z,11.80
2023-04-22T19:30:11.691Z,12.30
2023-04-22T19:35:16.165Z,6.53
2023-04-22T19:40:18.849Z,8.40
2023-04-22T19:45:21.486Z,15.00
2023-04-22T19:50:25.089Z,9.97
2023-04-22T19:55:27.014Z,11.97
2023-04-22T20:00:30.862Z,6.10
2023-04-22T20:05:34.793Z,7.90
2023-04-22T20:10:36.759Z,10.70
2023-04-22T20:15:39.218Z,8.80
2023-04-22T20:20:45.420Z,12.47
2023-04-22T20:25:47.281Z,17.83
2023-04-22T20:30:49.529Z,8.90
2023-04-22T20:35:52.742Z,6.40
2023-04-22T20:40:54.511Z,6.20
2023-04-22T20:45:56.296Z,6.53
2023-04-22T20:50:59.467Z,14.43
2023-04-22T20:56:01.258Z,7.63
2023-04-22T21:01:03.682Z,5.63
2023-04-22T21:06:07.806Z,9.30
2023-04-22T21:11:09.686Z,4.33
2023-04-22T21:16:11.822Z,6.43
2023-04-22T21:21:15.748Z,6.10
2023-04-22T21:26:17.623Z,8.43
2023-04-22T21:31:20.097Z,6.00
2023-04-22T21:36:24.849Z,7.73
2023-04-22T21:41:26.614Z,7.97
2023-04-22T21:46:28.433Z,7.87
2023-04-22T21:51:32.398Z,6.50
2023-04-22T21:56:34.197Z,5.03
2023-04-22T22:01:35.992Z,4.40
2023-04-22T22:06:39.106Z,12.83
2023-04-22T22:11:40.911Z,6.47
2023-04-22T22:16:43.729Z,5.40
2023-04-22T22:21:46.806Z,7.90
2023-04-22T22:26:48.910Z,4.93
2023-04-22T22:31:50.644Z,6.27
2023-04-22T22:36:53.743Z,8.27
2023-04-22T22:41:55.494Z,5.70
2023-04-22T22:46:57.242Z,5.27
2023-04-22T22:52:01.492Z,5.63
2023-04-22T22:57:05.316Z,6.53
2023-04-22T23:02:07.165Z,5.37
2023-04-22T23:07:10.410Z,7.80
2023-04-22T23:12:12.182Z,10.63
2023-04-22T23:17:13.910Z,6.27
2023-04-22T23:22:16.990Z,5.50
2023-04-22T23:27:19.117Z,7.10
2023-04-22T23:32:20.856Z,6.53
2023-04-22T23:37:24.000Z,6.70
2023-04-22T23:42:25.965Z,5.63
2023-04-22T23:47:27.729Z,8.73
2023-04-22T23:52:30.869Z,7.20
2023-04-22T23:57:33.258Z,7.80
